sensor_id;sensor_type;location;lat;lon;timestamp;P1;durP1;ratioP1;P2;durP2;ratioP2
51915;SDS011;37942;53.218;6.548;2022-07-12T00:02:04;9.30;;;4.20;;
51915;SDS011;37942;53.218;6.548;2022-07-12T00:04:30;9.88;;;3.88;;
51915;SDS011;37942;53.218;6.548;2022-07-12T00:06:56;10.20;;;4.40;;
51915;SDS011;37942;53.218;6.548;2022-07-12T00:09:22;10.95;;;5.28;;
51915;SDS011;37942;53.218;6.548;2022-07-12T00:11:48;9.60;;;3.90;;
51915;SDS011;37942;53.218;6.548;2022-07-12T00:14:14;9.95;;;4.38;;
51915;SDS011;37942;53.218;6.548;2022-07-12T00:16:40;11.23;;;5.03;;
51915;SDS011;37942;53.218;6.548;2022-07-12T00:19:06;9.27;;;4.43;;
51915;SDS011;37942;53.218;6.548;2022-07-12T00:21:34;9.57;;;4.82;;
51915;SDS011;37942;53.218;6.548;2022-07-12T00:24:00;10.88;;;5.20;;
51915;SDS011;37942;53.218;6.548;2022-07-12T00:28:52;10.95;;;4.93;;
51915;SDS011;37942;53.218;6.548;2022-07-12T00:31:18;11.10;;;5.35;;
51915;SDS011;37942;53.218;6.548;2022-07-12T00:33:45;10.32;;;5.13;;
51915;SDS011;37942;53.218;6.548;2022-07-12T00:38:37;10.77;;;5.25;;
51915;SDS011;37942;53.218;6.548;2022-07-12T00:41:03;9.73;;;4.95;;
51915;SDS011;37942;53.218;6.548;2022-07-12T00:45:56;12.20;;;5.53;;
51915;SDS011;37942;53.218;6.548;2022-07-12T00:48:22;12.70;;;5.75;;
51915;SDS011;37942;53.218;6.548;2022-07-12T00:50:48;20.95;;;5.78;;
51915;SDS011;37942;53.218;6.548;2022-07-12T00:53:14;12.55;;;6.15;;
51915;SDS011;37942;53.218;6.548;2022-07-12T00:55:43;11.57;;;6.22;;
51915;SDS011;37942;53.218;6.548;2022-07-12T01:00:35;12.02;;;6.10;;
51915;SDS011;37942;53.218;6.548;2022-07-12T01:03:02;11.90;;;5.80;;
51915;SDS011;37942;53.218;6.548;2022-07-12T01:05:28;10.63;;;5.53;;
51915;SDS011;37942;53.218;6.548;2022-07-12T01:07:55;11.50;;;5.63;;
51915;SDS011;37942;53.218;6.548;2022-07-12T01:10:22;13.68;;;6.18;;
51915;SDS011;37942;53.218;6.548;2022-07-12T01:12:48;12.43;;;6.50;;
51915;SDS011;37942;53.218;6.548;2022-07-12T01:15:15;12.65;;;6.32;;
51915;SDS011;37942;53.218;6.548;2022-07-12T01:17:41;12.50;;;6.53;;
51915;SDS011;37942;53.218;6.548;2022-07-12T01:20:09;10.88;;;6.13;;
51915;SDS011;37942;53.218;6.548;2022-07-12T01:22:36;12.60;;;6.78;;
51915;SDS011;37942;53.218;6.548;2022-07-12T01:25:05;11.35;;;6.07;;
51915;SDS011;37942;53.218;6.548;2022-07-12T01:27:32;12.60;;;6.75;;
51915;SDS011;37942;53.218;6.548;2022-07-12T01:30:00;11.25;;;6.13;;
51915;SDS011;37942;53.218;6.548;2022-07-12T01:32:26;11.35;;;5.68;;
51915;SDS011;37942;53.218;6.548;2022-07-12T01:37:23;10.68;;;5.35;;
51915;SDS011;37942;53.218;6.548;2022-07-12T01:39:51;10.48;;;4.63;;
51915;SDS011;37942;53.218;6.548;2022-07-12T01:42:18;9.23;;;4.70;;
51915;SDS011;37942;53.218;6.548;2022-07-12T01:44:44;10.43;;;4.90;;
51915;SDS011;37942;53.218;6.548;2022-07-12T01:47:11;10.95;;;5.80;;
51915;SDS011;37942;53.218;6.548;2022-07-12T01:49:37;11.85;;;6.70;;
51915;SDS011;37942;53.218;6.548;2022-07-12T01:54:29;12.25;;;5.88;;
51915;SDS011;37942;53.218;6.548;2022-07-12T01:56:55;12.15;;;6.20;;
51915;SDS011;37942;53.218;6.548;2022-07-12T01:59:21;11.25;;;5.90;;
51915;SDS011;37942;53.218;6.548;2022-07-12T02:01:48;12.85;;;7.07;;
51915;SDS011;37942;53.218;6.548;2022-07-12T02:04:18;12.82;;;6.55;;
51915;SDS011;37942;53.218;6.548;2022-07-12T02:06:44;11.15;;;5.80;;
51915;SDS011;37942;53.218;6.548;2022-07-12T02:09:11;12.07;;;5.68;;
51915;SDS011;37942;53.218;6.548;2022-07-12T02:11:37;10.85;;;5.95;;
51915;SDS011;37942;53.218;6.548;2022-07-12T02:14:03;10.85;;;6.05;;
51915;SDS011;37942;53.218;6.548;2022-07-12T02:16:29;11.02;;;6.25;;
51915;SDS011;37942;53.218;6.548;2022-07-12T02:18:56;12.48;;;6.88;;
51915;SDS011;37942;53.218;6.548;2022-07-12T02:23:48;11.50;;;6.78;;
51915;SDS011;37942;53.218;6.548;2022-07-12T02:26:15;11.63;;;6.50;;
51915;SDS011;37942;53.218;6.548;2022-07-12T02:28:41;12.02;;;6.90;;
51915;SDS011;37942;53.218;6.548;2022-07-12T02:33:33;12.52;;;7.00;;
51915;SDS011;37942;53.218;6.548;2022-07-12T02:38:25;13.50;;;7.53;;
51915;SDS011;37942;53.218;6.548;2022-07-12T02:40:51;14.05;;;7.82;;
51915;SDS011;37942;53.218;6.548;2022-07-12T02:43:21;12.48;;;7.55;;
51915;SDS011;37942;53.218;6.548;2022-07-12T02:45:47;14.30;;;7.38;;
51915;SDS011;37942;53.218;6.548;2022-07-12T02:48:13;13.77;;;8.15;;
51915;SDS011;37942;53.218;6.548;2022-07-12T02:50:40;13.45;;;7.97;;
51915;SDS011;37942;53.218;6.548;2022-07-12T02:53:06;15.23;;;7.90;;
51915;SDS011;37942;53.218;6.548;2022-07-12T02:55:33;14.02;;;8.73;;
51915;SDS011;37942;53.218;6.548;2022-07-12T03:00:25;14.93;;;8.35;;
51915;SDS011;37942;53.218;6.548;2022-07-12T03:02:51;14.15;;;8.00;;
51915;SDS011;37942;53.218;6.548;2022-07-12T03:07:44;13.77;;;8.35;;
51915;SDS011;37942;53.218;6.548;2022-07-12T03:10:10;15.48;;;8.95;;
51915;SDS011;37942;53.218;6.548;2022-07-12T03:12:36;15.20;;;8.85;;
51915;SDS011;37942;53.218;6.548;2022-07-12T03:15:03;14.70;;;8.20;;
51915;SDS011;37942;53.218;6.548;2022-07-12T03:17:29;14.48;;;8.90;;
51915;SDS011;37942;53.218;6.548;2022-07-12T03:19:55;14.60;;;8.82;;
51915;SDS011;37942;53.218;6.548;2022-07-12T03:22:21;15.48;;;9.13;;
51915;SDS011;37942;53.218;6.548;2022-07-12T03:24:47;16.52;;;9.68;;
51915;SDS011;37942;53.218;6.548;2022-07-12T03:27:13;14.40;;;9.25;;
51915;SDS011;37942;53.218;6.548;2022-07-12T03:29:39;15.52;;;10.07;;
51915;SDS011;37942;53.218;6.548;2022-07-12T03:32:05;16.65;;;10.07;;
51915;SDS011;37942;53.218;6.548;2022-07-12T03:34:32;16.27;;;9.15;;
51915;SDS011;37942;53.218;6.548;2022-07-12T03:36:58;16.20;;;10.38;;
51915;SDS011;37942;53.218;6.548;2022-07-12T03:39:24;16.88;;;10.95;;
51915;SDS011;37942;53.218;6.548;2022-07-12T03:41:50;22.35;;;11.95;;
51915;SDS011;37942;53.218;6.548;2022-07-12T03:44:16;19.27;;;11.93;;
51915;SDS011;37942;53.218;6.548;2022-07-12T03:46:42;18.75;;;11.40;;
51915;SDS011;37942;53.218;6.548;2022-07-12T03:49:08;17.20;;;11.43;;
51915;SDS011;37942;53.218;6.548;2022-07-12T03:51:34;19.75;;;12.65;;
51915;SDS011;37942;53.218;6.548;2022-07-12T03:54:00;23.55;;;13.90;;
51915;SDS011;37942;53.218;6.548;2022-07-12T03:56:27;21.45;;;12.95;;
51915;SDS011;37942;53.218;6.548;2022-07-12T03:59:12;22.20;;;13.23;;
51915;SDS011;37942;53.218;6.548;2022-07-12T04:01:38;22.80;;;14.43;;
51915;SDS011;37942;53.218;6.548;2022-07-12T04:04:04;22.85;;;14.95;;
51915;SDS011;37942;53.218;6.548;2022-07-12T04:06:30;19.80;;;12.90;;
51915;SDS011;37942;53.218;6.548;2022-07-12T04:08:56;18.92;;;11.27;;
51915;SDS011;37942;53.218;6.548;2022-07-12T04:11:22;23.58;;;10.45;;
51915;SDS011;37942;53.218;6.548;2022-07-12T04:13:48;19.73;;;11.05;;
51915;SDS011;37942;53.218;6.548;2022-07-12T04:16:14;27.85;;;12.05;;
51915;SDS011;37942;53.218;6.548;2022-07-12T04:18:40;19.75;;;10.55;;
51915;SDS011;37942;53.218;6.548;2022-07-12T04:21:06;23.50;;;11.18;;
51915;SDS011;37942;53.218;6.548;2022-07-12T04:23:32;23.77;;;11.82;;
51915;SDS011;37942;53.218;6.548;2022-07-12T04:25:58;84.15;;;12.43;;
51915;SDS011;37942;53.218;6.548;2022-07-12T04:28:24;30.52;;;11.48;;
51915;SDS011;37942;53.218;6.548;2022-07-12T04:30:50;19.52;;;11.35;;
51915;SDS011;37942;53.218;6.548;2022-07-12T04:33:17;22.05;;;10.57;;
51915;SDS011;37942;53.218;6.548;2022-07-12T04:35:43;23.23;;;11.18;;
51915;SDS011;37942;53.218;6.548;2022-07-12T04:38:09;19.85;;;11.68;;
51915;SDS011;37942;53.218;6.548;2022-07-12T04:40:35;32.13;;;12.13;;
51915;SDS011;37942;53.218;6.548;2022-07-12T04:43:02;31.58;;;12.38;;
51915;SDS011;37942;53.218;6.548;2022-07-12T04:45:28;22.33;;;12.00;;
51915;SDS011;37942;53.218;6.548;2022-07-12T04:47:54;20.60;;;11.30;;
51915;SDS011;37942;53.218;6.548;2022-07-12T04:50:20;22.50;;;12.57;;
51915;SDS011;37942;53.218;6.548;2022-07-12T04:52:46;25.02;;;12.20;;
51915;SDS011;37942;53.218;6.548;2022-07-12T04:55:12;18.40;;;9.93;;
51915;SDS011;37942;53.218;6.548;2022-07-12T04:57:38;20.42;;;10.38;;
51915;SDS011;37942;53.218;6.548;2022-07-12T05:00:05;18.65;;;9.40;;
51915;SDS011;37942;53.218;6.548;2022-07-12T05:02:32;15.13;;;8.90;;
51915;SDS011;37942;53.218;6.548;2022-07-12T05:04:58;17.58;;;9.73;;
51915;SDS011;37942;53.218;6.548;2022-07-12T05:09:50;18.75;;;10.15;;
51915;SDS011;37942;53.218;6.548;2022-07-12T05:12:17;18.67;;;11.00;;
51915;SDS011;37942;53.218;6.548;2022-07-12T05:14:43;19.60;;;10.20;;
51915;SDS011;37942;53.218;6.548;2022-07-12T05:17:09;19.15;;;11.13;;
51915;SDS011;37942;53.218;6.548;2022-07-12T05:19:36;18.30;;;10.50;;
51915;SDS011;37942;53.218;6.548;2022-07-12T05:22:02;19.20;;;11.05;;
51915;SDS011;37942;53.218;6.548;2022-07-12T05:26:56;20.75;;;11.50;;
51915;SDS011;37942;53.218;6.548;2022-07-12T05:29:22;19.80;;;11.10;;
51915;SDS011;37942;53.218;6.548;2022-07-12T05:31:48;19.88;;;10.82;;
51915;SDS011;37942;53.218;6.548;2022-07-12T05:34:15;16.45;;;9.60;;
51915;SDS011;37942;53.218;6.548;2022-07-12T05:36:41;17.80;;;9.88;;
51915;SDS011;37942;53.218;6.548;2022-07-12T05:41:33;18.63;;;10.55;;
51915;SDS011;37942;53.218;6.548;2022-07-12T05:43:59;20.63;;;11.10;;
51915;SDS011;37942;53.218;6.548;2022-07-12T05:46:25;19.17;;;10.40;;
51915;SDS011;37942;53.218;6.548;2022-07-12T05:48:52;18.90;;;10.30;;
51915;SDS011;37942;53.218;6.548;2022-07-12T05:51:19;16.60;;;9.43;;
51915;SDS011;37942;53.218;6.548;2022-07-12T05:54:03;16.13;;;9.50;;
51915;SDS011;37942;53.218;6.548;2022-07-12T05:56:30;16.80;;;9.30;;
51915;SDS011;37942;53.218;6.548;2022-07-12T05:58:56;16.33;;;9.10;;
51915;SDS011;37942;53.218;6.548;2022-07-12T06:01:22;17.98;;;9.60;;
51915;SDS011;37942;53.218;6.548;2022-07-12T06:03:48;15.90;;;8.82;;
51915;SDS011;37942;53.218;6.548;2022-07-12T06:06:14;14.85;;;8.80;;
51915;SDS011;37942;53.218;6.548;2022-07-12T06:08:40;16.88;;;8.85;;
51915;SDS011;37942;53.218;6.548;2022-07-12T06:11:06;16.05;;;9.15;;
51915;SDS011;37942;53.218;6.548;2022-07-12T06:13:32;15.45;;;9.00;;
51915;SDS011;37942;53.218;6.548;2022-07-12T06:15:58;14.65;;;8.55;;
51915;SDS011;37942;53.218;6.548;2022-07-12T06:18:25;14.18;;;8.32;;
51915;SDS011;37942;53.218;6.548;2022-07-12T06:23:17;14.38;;;7.35;;
51915;SDS011;37942;53.218;6.548;2022-07-12T06:25:43;12.80;;;7.57;;
51915;SDS011;37942;53.218;6.548;2022-07-12T06:28:10;14.75;;;8.05;;
51915;SDS011;37942;53.218;6.548;2022-07-12T06:30:37;12.25;;;7.18;;
51915;SDS011;37942;53.218;6.548;2022-07-12T06:33:03;14.88;;;8.00;;
51915;SDS011;37942;53.218;6.548;2022-07-12T06:35:30;13.20;;;7.05;;
51915;SDS011;37942;53.218;6.548;2022-07-12T06:37:56;13.38;;;7.25;;
51915;SDS011;37942;53.218;6.548;2022-07-12T06:40:22;13.35;;;7.10;;
51915;SDS011;37942;53.218;6.548;2022-07-12T06:42:48;14.93;;;7.47;;
51915;SDS011;37942;53.218;6.548;2022-07-12T06:45:15;13.07;;;7.47;;
51915;SDS011;37942;53.218;6.548;2022-07-12T06:47:41;11.65;;;6.53;;
51915;SDS011;37942;53.218;6.548;2022-07-12T06:50:07;12.73;;;6.05;;
51915;SDS011;37942;53.218;6.548;2022-07-12T06:54:59;13.73;;;6.93;;
51915;SDS011;37942;53.218;6.548;2022-07-12T06:57:25;13.27;;;6.57;;
51915;SDS011;37942;53.218;6.548;2022-07-12T06:59:52;11.93;;;5.82;;
51915;SDS011;37942;53.218;6.548;2022-07-12T07:04:44;12.02;;;6.32;;
51915;SDS011;37942;53.218;6.548;2022-07-12T07:07:10;12.13;;;5.93;;
51915;SDS011;37942;53.218;6.548;2022-07-12T07:09:37;11.23;;;5.88;;
51915;SDS011;37942;53.218;6.548;2022-07-12T07:12:03;10.82;;;5.60;;
51915;SDS011;37942;53.218;6.548;2022-07-12T07:14:30;12.82;;;5.60;;
51915;SDS011;37942;53.218;6.548;2022-07-12T07:16:56;12.32;;;6.00;;
51915;SDS011;37942;53.218;6.548;2022-07-12T07:19:22;11.80;;;6.05;;
51915;SDS011;37942;53.218;6.548;2022-07-12T07:21:51;10.80;;;5.43;;
51915;SDS011;37942;53.218;6.548;2022-07-12T07:26:43;11.55;;;5.20;;
51915;SDS011;37942;53.218;6.548;2022-07-12T07:29:09;10.55;;;5.45;;
51915;SDS011;37942;53.218;6.548;2022-07-12T07:31:54;10.45;;;5.10;;
51915;SDS011;37942;53.218;6.548;2022-07-12T07:34:20;9.52;;;4.70;;
51915;SDS011;37942;53.218;6.548;2022-07-12T07:36:47;10.52;;;4.53;;
51915;SDS011;37942;53.218;6.548;2022-07-12T07:41:39;10.55;;;4.40;;
51915;SDS011;37942;53.218;6.548;2022-07-12T07:44:05;9.80;;;4.10;;
51915;SDS011;37942;53.218;6.548;2022-07-12T07:46:31;9.77;;;4.57;;
51915;SDS011;37942;53.218;6.548;2022-07-12T07:51:23;10.20;;;4.00;;
51915;SDS011;37942;53.218;6.548;2022-07-12T07:53:50;9.23;;;3.95;;
51915;SDS011;37942;53.218;6.548;2022-07-12T07:56:16;8.60;;;3.55;;
51915;SDS011;37942;53.218;6.548;2022-07-12T07:58:42;9.65;;;4.55;;
51915;SDS011;37942;53.218;6.548;2022-07-12T08:03:34;10.05;;;4.00;;
51915;SDS011;37942;53.218;6.548;2022-07-12T08:06:00;8.52;;;3.95;;
51915;SDS011;37942;53.218;6.548;2022-07-12T08:08:26;8.68;;;4.22;;
51915;SDS011;37942;53.218;6.548;2022-07-12T08:10:56;8.80;;;3.72;;
51915;SDS011;37942;53.218;6.548;2022-07-12T08:13:22;9.50;;;4.03;;
51915;SDS011;37942;53.218;6.548;2022-07-12T08:15:49;9.95;;;3.90;;
51915;SDS011;37942;53.218;6.548;2022-07-12T08:18:15;9.75;;;4.18;;
51915;SDS011;37942;53.218;6.548;2022-07-12T08:23:07;11.82;;;4.05;;
51915;SDS011;37942;53.218;6.548;2022-07-12T08:25:33;10.60;;;4.10;;
51915;SDS011;37942;53.218;6.548;2022-07-12T08:27:59;9.30;;;4.20;;
51915;SDS011;37942;53.218;6.548;2022-07-12T08:30:26;8.98;;;3.92;;
51915;SDS011;37942;53.218;6.548;2022-07-12T08:32:52;9.20;;;3.70;;
51915;SDS011;37942;53.218;6.548;2022-07-12T08:35:20;11.05;;;4.28;;
51915;SDS011;37942;53.218;6.548;2022-07-12T08:37:46;9.27;;;4.32;;
51915;SDS011;37942;53.218;6.548;2022-07-12T08:42:42;9.95;;;4.32;;
51915;SDS011;37942;53.218;6.548;2022-07-12T08:45:09;9.48;;;4.40;;
51915;SDS011;37942;53.218;6.548;2022-07-12T08:47:35;11.30;;;3.95;;
51915;SDS011;37942;53.218;6.548;2022-07-12T08:50:09;10.57;;;4.32;;
51915;SDS011;37942;53.218;6.548;2022-07-12T08:52:39;9.45;;;3.92;;
51915;SDS011;37942;53.218;6.548;2022-07-12T08:55:15;12.25;;;4.43;;
51915;SDS011;37942;53.218;6.548;2022-07-12T08:57:43;10.70;;;4.03;;
51915;SDS011;37942;53.218;6.548;2022-07-12T09:00:09;11.32;;;4.30;;
51915;SDS011;37942;53.218;6.548;2022-07-12T09:05:11;8.60;;;3.88;;
51915;SDS011;37942;53.218;6.548;2022-07-12T09:10:06;11.18;;;4.50;;
51915;SDS011;37942;53.218;6.548;2022-07-12T09:12:33;10.35;;;4.28;;
51915;SDS011;37942;53.218;6.548;2022-07-12T09:15:21;9.48;;;4.13;;
51915;SDS011;37942;53.218;6.548;2022-07-12T09:17:53;9.45;;;4.20;;
51915;SDS011;37942;53.218;6.548;2022-07-12T09:20:20;9.30;;;3.75;;
51915;SDS011;37942;53.218;6.548;2022-07-12T09:22:53;9.70;;;4.10;;
51915;SDS011;37942;53.218;6.548;2022-07-12T09:25:20;9.23;;;4.43;;
51915;SDS011;37942;53.218;6.548;2022-07-12T09:27:53;9.93;;;4.40;;
51915;SDS011;37942;53.218;6.548;2022-07-12T09:30:23;9.63;;;4.80;;
51915;SDS011;37942;53.218;6.548;2022-07-12T09:32:50;8.77;;;4.20;;
51915;SDS011;37942;53.218;6.548;2022-07-12T09:35:35;9.77;;;4.30;;
51915;SDS011;37942;53.218;6.548;2022-07-12T09:38:20;10.15;;;4.57;;
51915;SDS011;37942;53.218;6.548;2022-07-12T09:43:13;9.40;;;4.20;;
51915;SDS011;37942;53.218;6.548;2022-07-12T09:45:40;8.98;;;4.10;;
51915;SDS011;37942;53.218;6.548;2022-07-12T09:48:09;10.50;;;4.55;;
51915;SDS011;37942;53.218;6.548;2022-07-12T09:50:36;10.13;;;4.63;;
51915;SDS011;37942;53.218;6.548;2022-07-12T09:53:03;9.65;;;4.90;;
51915;SDS011;37942;53.218;6.548;2022-07-12T09:55:29;10.25;;;5.40;;
51915;SDS011;37942;53.218;6.548;2022-07-12T09:57:55;10.18;;;5.10;;
51915;SDS011;37942;53.218;6.548;2022-07-12T10:00:22;10.90;;;4.32;;
51915;SDS011;37942;53.218;6.548;2022-07-12T10:02:49;9.18;;;4.35;;
51915;SDS011;37942;53.218;6.548;2022-07-12T10:05:16;9.48;;;4.47;;
51915;SDS011;37942;53.218;6.548;2022-07-12T10:07:42;10.70;;;4.68;;
51915;SDS011;37942;53.218;6.548;2022-07-12T10:10:10;11.73;;;3.85;;
51915;SDS011;37942;53.218;6.548;2022-07-12T10:12:36;9.32;;;4.50;;
51915;SDS011;37942;53.218;6.548;2022-07-12T10:15:04;9.10;;;4.22;;
51915;SDS011;37942;53.218;6.548;2022-07-12T10:17:30;9.93;;;4.28;;
51915;SDS011;37942;53.218;6.548;2022-07-12T10:25:41;9.18;;;3.55;;
51915;SDS011;37942;53.218;6.548;2022-07-12T10:28:07;9.75;;;3.60;;
51915;SDS011;37942;53.218;6.548;2022-07-12T10:30:44;8.38;;;3.15;;
51915;SDS011;37942;53.218;6.548;2022-07-12T10:35:36;8.02;;;3.35;;
51915;SDS011;37942;53.218;6.548;2022-07-12T10:40:38;7.07;;;2.92;;
51915;SDS011;37942;53.218;6.548;2022-07-12T10:45:31;6.68;;;2.58;;
51915;SDS011;37942;53.218;6.548;2022-07-12T10:47:58;6.35;;;2.10;;
51915;SDS011;37942;53.218;6.548;2022-07-12T10:51:11;5.20;;;2.15;;
51915;SDS011;37942;53.218;6.548;2022-07-12T10:58:31;6.75;;;2.45;;
51915;SDS011;37942;53.218;6.548;2022-07-12T11:00:58;7.55;;;2.63;;
51915;SDS011;37942;53.218;6.548;2022-07-12T11:03:30;9.75;;;2.00;;
51915;SDS011;37942;53.218;6.548;2022-07-12T11:06:02;8.65;;;2.60;;
51915;SDS011;37942;53.218;6.548;2022-07-12T11:08:29;6.95;;;2.30;;
51915;SDS011;37942;53.218;6.548;2022-07-12T11:10:58;9.27;;;2.30;;
51915;SDS011;37942;53.218;6.548;2022-07-12T11:13:24;7.07;;;2.63;;
51915;SDS011;37942;53.218;6.548;2022-07-12T11:16:00;6.20;;;2.47;;
51915;SDS011;37942;53.218;6.548;2022-07-12T11:18:27;5.15;;;2.30;;
51915;SDS011;37942;53.218;6.548;2022-07-12T11:20:57;6.22;;;2.45;;
51915;SDS011;37942;53.218;6.548;2022-07-12T11:23:26;6.97;;;2.58;;
51915;SDS011;37942;53.218;6.548;2022-07-12T11:25:56;9.23;;;2.58;;
51915;SDS011;37942;53.218;6.548;2022-07-12T11:28:30;7.40;;;2.30;;
51915;SDS011;37942;53.218;6.548;2022-07-12T11:31:12;4.47;;;2.10;;
51915;SDS011;37942;53.218;6.548;2022-07-12T11:33:39;7.95;;;2.15;;
51915;SDS011;37942;53.218;6.548;2022-07-12T11:36:06;6.90;;;2.40;;
51915;SDS011;37942;53.218;6.548;2022-07-12T11:38:34;9.15;;;2.60;;
51915;SDS011;37942;53.218;6.548;2022-07-12T11:41:01;6.03;;;2.40;;
51915;SDS011;37942;53.218;6.548;2022-07-12T11:43:28;6.28;;;2.53;;
51915;SDS011;37942;53.218;6.548;2022-07-12T11:45:55;8.82;;;3.15;;
51915;SDS011;37942;53.218;6.548;2022-07-12T11:48:21;7.82;;;2.70;;
51915;SDS011;37942;53.218;6.548;2022-07-12T11:50:48;5.70;;;2.40;;
51915;SDS011;37942;53.218;6.548;2022-07-12T11:53:15;5.75;;;2.20;;
51915;SDS011;37942;53.218;6.548;2022-07-12T11:55:43;5.15;;;1.92;;
51915;SDS011;37942;53.218;6.548;2022-07-12T11:58:09;6.38;;;2.00;;
51915;SDS011;37942;53.218;6.548;2022-07-12T12:00:35;6.80;;;2.20;;
51915;SDS011;37942;53.218;6.548;2022-07-12T12:03:01;6.68;;;2.00;;
51915;SDS011;37942;53.218;6.548;2022-07-12T12:05:28;4.90;;;1.90;;
51915;SDS011;37942;53.218;6.548;2022-07-12T12:07:54;4.70;;;1.95;;
51915;SDS011;37942;53.218;6.548;2022-07-12T12:10:20;4.65;;;2.10;;
51915;SDS011;37942;53.218;6.548;2022-07-12T12:12:47;5.65;;;2.13;;
51915;SDS011;37942;53.218;6.548;2022-07-12T12:15:17;4.78;;;1.70;;
51915;SDS011;37942;53.218;6.548;2022-07-12T12:17:51;7.28;;;2.35;;
51915;SDS011;37942;53.218;6.548;2022-07-12T12:20:25;6.95;;;2.25;;
51915;SDS011;37942;53.218;6.548;2022-07-12T12:22:52;5.25;;;2.15;;
51915;SDS011;37942;53.218;6.548;2022-07-12T12:25:19;4.78;;;1.92;;
51915;SDS011;37942;53.218;6.548;2022-07-12T12:27:48;5.75;;;2.22;;
51915;SDS011;37942;53.218;6.548;2022-07-12T12:30:15;5.35;;;2.10;;
51915;SDS011;37942;53.218;6.548;2022-07-12T12:32:46;6.38;;;2.00;;
51915;SDS011;37942;53.218;6.548;2022-07-12T12:35:13;5.90;;;1.85;;
51915;SDS011;37942;53.218;6.548;2022-07-12T12:37:40;6.13;;;2.10;;
51915;SDS011;37942;53.218;6.548;2022-07-12T12:40:06;5.90;;;2.63;;
51915;SDS011;37942;53.218;6.548;2022-07-12T12:42:33;8.00;;;2.40;;
51915;SDS011;37942;53.218;6.548;2022-07-12T12:44:59;7.97;;;2.70;;
51915;SDS011;37942;53.218;6.548;2022-07-12T12:47:25;6.30;;;2.30;;
51915;SDS011;37942;53.218;6.548;2022-07-12T12:49:57;6.10;;;2.08;;
51915;SDS011;37942;53.218;6.548;2022-07-12T12:52:27;7.78;;;2.40;;
51915;SDS011;37942;53.218;6.548;2022-07-12T12:54:53;7.35;;;2.13;;
51915;SDS011;37942;53.218;6.548;2022-07-12T12:57:20;6.15;;;2.20;;
51915;SDS011;37942;53.218;6.548;2022-07-12T12:59:46;6.32;;;2.40;;
51915;SDS011;37942;53.218;6.548;2022-07-12T13:02:12;6.72;;;2.80;;
51915;SDS011;37942;53.218;6.548;2022-07-12T13:04:38;9.73;;;3.10;;
51915;SDS011;37942;53.218;6.548;2022-07-12T13:07:05;8.05;;;2.90;;
51915;SDS011;37942;53.218;6.548;2022-07-12T13:09:31;9.65;;;3.30;;
51915;SDS011;37942;53.218;6.548;2022-07-12T13:11:58;8.93;;;3.10;;
51915;SDS011;37942;53.218;6.548;2022-07-12T13:14:24;8.63;;;3.05;;
51915;SDS011;37942;53.218;6.548;2022-07-12T13:16:51;7.90;;;3.00;;
51915;SDS011;37942;53.218;6.548;2022-07-12T13:19:17;9.93;;;3.10;;
51915;SDS011;37942;53.218;6.548;2022-07-12T13:21:44;9.13;;;3.33;;
51915;SDS011;37942;53.218;6.548;2022-07-12T13:24:10;7.70;;;2.70;;
51915;SDS011;37942;53.218;6.548;2022-07-12T13:26:36;7.25;;;2.80;;
51915;SDS011;37942;53.218;6.548;2022-07-12T13:29:02;9.32;;;3.28;;
51915;SDS011;37942;53.218;6.548;2022-07-12T13:31:28;8.25;;;2.88;;
51915;SDS011;37942;53.218;6.548;2022-07-12T13:33:55;7.15;;;2.58;;
51915;SDS011;37942;53.218;6.548;2022-07-12T13:36:21;9.23;;;2.75;;
51915;SDS011;37942;53.218;6.548;2022-07-12T13:38:47;6.38;;;2.20;;
51915;SDS011;37942;53.218;6.548;2022-07-12T13:41:13;4.78;;;2.00;;
51915;SDS011;37942;53.218;6.548;2022-07-12T13:43:39;6.85;;;2.30;;
51915;SDS011;37942;53.218;6.548;2022-07-12T13:46:05;4.97;;;1.98;;
51915;SDS011;37942;53.218;6.548;2022-07-12T13:48:31;8.20;;;1.90;;
51915;SDS011;37942;53.218;6.548;2022-07-12T13:50:58;4.25;;;1.90;;
51915;SDS011;37942;53.218;6.548;2022-07-12T13:53:25;3.33;;;1.70;;
51915;SDS011;37942;53.218;6.548;2022-07-12T13:55:51;4.75;;;1.95;;
51915;SDS011;37942;53.218;6.548;2022-07-12T13:58:17;8.07;;;2.10;;
51915;SDS011;37942;53.218;6.548;2022-07-12T14:00:43;7.47;;;2.50;;
51915;SDS011;37942;53.218;6.548;2022-07-12T14:03:09;5.45;;;1.90;;
51915;SDS011;37942;53.218;6.548;2022-07-12T14:05:35;6.40;;;2.47;;
51915;SDS011;37942;53.218;6.548;2022-07-12T14:08:02;5.53;;;2.28;;
51915;SDS011;37942;53.218;6.548;2022-07-12T14:10:28;8.32;;;2.78;;
51915;SDS011;37942;53.218;6.548;2022-07-12T14:12:54;8.23;;;2.63;;
51915;SDS011;37942;53.218;6.548;2022-07-12T14:15:20;9.38;;;3.10;;
51915;SDS011;37942;53.218;6.548;2022-07-12T14:18:07;6.40;;;2.50;;
51915;SDS011;37942;53.218;6.548;2022-07-12T14:20:34;11.15;;;3.03;;
51915;SDS011;37942;53.218;6.548;2022-07-12T14:23:01;7.30;;;2.67;;
51915;SDS011;37942;53.218;6.548;2022-07-12T14:25:27;8.70;;;2.63;;
51915;SDS011;37942;53.218;6.548;2022-07-12T14:27:53;7.43;;;2.55;;
51915;SDS011;37942;53.218;6.548;2022-07-12T14:30:19;6.55;;;2.63;;
51915;SDS011;37942;53.218;6.548;2022-07-12T14:32:46;8.50;;;2.65;;
51915;SDS011;37942;53.218;6.548;2022-07-12T14:35:12;6.75;;;2.63;;
51915;SDS011;37942;53.218;6.548;2022-07-12T14:37:39;11.15;;;2.92;;
51915;SDS011;37942;53.218;6.548;2022-07-12T14:40:06;7.97;;;2.60;;
51915;SDS011;37942;53.218;6.548;2022-07-12T14:42:32;8.98;;;2.45;;
51915;SDS011;37942;53.218;6.548;2022-07-12T14:44:59;9.07;;;3.15;;
51915;SDS011;37942;53.218;6.548;2022-07-12T14:47:25;9.48;;;3.00;;
51915;SDS011;37942;53.218;6.548;2022-07-12T14:49:51;8.10;;;2.92;;
51915;SDS011;37942;53.218;6.548;2022-07-12T14:52:21;7.82;;;3.17;;
51915;SDS011;37942;53.218;6.548;2022-07-12T14:54:47;7.28;;;2.90;;
51915;SDS011;37942;53.218;6.548;2022-07-12T14:57:15;8.75;;;2.80;;
51915;SDS011;37942;53.218;6.548;2022-07-12T14:59:42;9.48;;;2.92;;
51915;SDS011;37942;53.218;6.548;2022-07-12T15:02:08;7.60;;;2.15;;
51915;SDS011;37942;53.218;6.548;2022-07-12T15:04:37;7.82;;;2.42;;
51915;SDS011;37942;53.218;6.548;2022-07-12T15:07:03;6.47;;;2.40;;
51915;SDS011;37942;53.218;6.548;2022-07-12T15:09:29;6.97;;;2.50;;
51915;SDS011;37942;53.218;6.548;2022-07-12T15:11:55;6.65;;;2.35;;
51915;SDS011;37942;53.218;6.548;2022-07-12T15:14:21;5.72;;;2.20;;
51915;SDS011;37942;53.218;6.548;2022-07-12T15:16:48;7.22;;;2.25;;
51915;SDS011;37942;53.218;6.548;2022-07-12T15:19:14;4.72;;;2.03;;
51915;SDS011;37942;53.218;6.548;2022-07-12T15:21:40;7.18;;;2.30;;
51915;SDS011;37942;53.218;6.548;2022-07-12T15:24:06;5.80;;;2.20;;
51915;SDS011;37942;53.218;6.548;2022-07-12T15:26:32;5.15;;;2.10;;
51915;SDS011;37942;53.218;6.548;2022-07-12T15:28:59;4.97;;;2.00;;
51915;SDS011;37942;53.218;6.548;2022-07-12T15:31:27;5.05;;;1.88;;
51915;SDS011;37942;53.218;6.548;2022-07-12T15:33:54;5.15;;;1.80;;
51915;SDS011;37942;53.218;6.548;2022-07-12T15:36:20;4.70;;;1.88;;
51915;SDS011;37942;53.218;6.548;2022-07-12T15:38:47;4.78;;;1.65;;
51915;SDS011;37942;53.218;6.548;2022-07-12T15:41:13;3.60;;;1.50;;
51915;SDS011;37942;53.218;6.548;2022-07-12T15:43:40;5.57;;;1.83;;
51915;SDS011;37942;53.218;6.548;2022-07-12T15:46:06;5.38;;;1.65;;
51915;SDS011;37942;53.218;6.548;2022-07-12T15:48:33;5.90;;;1.70;;
51915;SDS011;37942;53.218;6.548;2022-07-12T15:50:59;7.30;;;1.80;;
51915;SDS011;37942;53.218;6.548;2022-07-12T15:53:25;4.85;;;1.70;;
51915;SDS011;37942;53.218;6.548;2022-07-12T15:55:53;5.35;;;1.60;;
51915;SDS011;37942;53.218;6.548;2022-07-12T15:58:22;5.32;;;1.80;;
51915;SDS011;37942;53.218;6.548;2022-07-12T16:00:49;3.88;;;1.67;;